Time;durP1;ratioP1;P1;durP2;ratioP2;P2;SDS_P1;SDS_P2;PMS_P1;PMS_P2;Temp;Humidity;BMP_temperature;BMP_pressure;BME280_temperature;BME280_humidity;BME280_pressure;Samples;Min_cycle;Max_cycle;Signal;HPM_P1;HPM_P2
2023/01/04 00:00:26;;;;;;;13.38;6.50;;;10.90;99.90;;;;;;5066939;28;20077;-73
2023/01/04 00:02:52;;;;;;;14.73;7.93;;;11.00;99.90;;;;;;5094695;27;20035;-74
2023/01/04 00:05:18;;;;;;;16.88;7.10;;;11.00;99.90;;;;;;5077069;28;20028;-74
2023/01/04 00:07:44;;;;;;;14.90;7.72;;;10.90;99.90;;;;;;5081277;28;20028;-72
2023/01/04 00:10:10;;;;;;;14.40;8.00;;;11.00;99.90;;;;;;5074865;28;20118;-73
2023/01/04 00:12:36;;;;;;;19.17;8.82;;;10.90;99.90;;;;;;5078747;28;20083;-73
2023/01/04 00:15:02;;;;;;;16.75;8.32;;;11.10;99.90;;;;;;5080038;28;20033;-73
2023/01/04 00:17:30;;;;;;;18.90;9.98;;;11.10;99.90;;;;;;5092832;28;20410;-72
2023/01/04 00:19:55;;;;;;;17.55;9.27;;;11.20;99.90;;;;;;5093491;27;20037;-73
2023/01/04 00:22:22;;;;;;;16.05;7.68;;;11.30;99.90;;;;;;5079301;28;20084;-74
2023/01/04 00:24:48;;;;;;;15.15;7.63;;;11.20;99.90;;;;;;5077851;28;20024;-73
2023/01/04 00:27:14;;;;;;;15.55;7.93;;;11.10;99.90;;;;;;5067324;28;20032;-72
2023/01/04 00:29:39;;;;;;;15.80;7.65;;;11.00;99.90;;;;;;5091340;28;20042;-73
2023/01/04 00:32:06;;;;;;;15.77;8.02;;;10.90;99.90;;;;;;5092478;28;20041;-73
2023/01/04 00:34:32;;;;;;;16.70;8.15;;;10.90;99.90;;;;;;5079580;28;20502;-73
2023/01/04 00:36:58;;;;;;;16.83;8.57;;;10.80;99.90;;;;;;5073790;28;20024;-73
2023/01/04 00:39:24;;;;;;;15.90;8.35;;;10.80;99.90;;;;;;5077371;28;20024;-72
2023/01/04 00:41:53;;;;;;;16.58;7.38;;;10.70;99.90;;;;;;5077207;28;20492;-74
2023/01/04 00:44:22;;;;;;;15.90;8.02;;;10.70;99.90;;;;;;5096215;28;20044;-74
2023/01/04 00:46:48;;;;;;;14.38;7.25;;;10.60;99.90;;;;;;5081443;28;20094;-73
2023/01/04 00:49:14;;;;;;;15.10;7.80;;;10.50;99.90;;;;;;5076963;28;20131;-73
2023/01/04 00:51:41;;;;;;;14.57;6.97;;;10.50;99.90;;;;;;5065833;28;20578;-73
2023/01/04 00:54:11;;;;;;;13.70;6.72;;;10.50;99.90;;;;;;5094021;27;20142;-73
2023/01/04 00:56:37;;;;;;;12.82;5.95;;;10.40;99.90;;;;;;5083677;28;20040;-73
2023/01/04 00:59:04;;;;;;;13.43;6.90;;;10.40;99.90;;;;;;5060761;28;20039;-73
2023/01/04 01:01:32;;;;;;;14.77;6.90;;;10.40;99.90;;;;;;5097566;27;20484;-74
2023/01/04 01:04:00;;;;;;;14.80;6.63;;;10.50;99.90;;;;;;5077878;28;20028;-73
2023/01/04 01:06:27;;;;;;;12.25;6.68;;;10.40;99.90;;;;;;5075454;28;20035;-73
2023/01/04 01:08:53;;;;;;;13.90;6.75;;;10.50;99.90;;;;;;5078985;28;20062;-73
2023/01/04 01:11:19;;;;;;;14.05;7.18;;;10.50;99.90;;;;;;5067406;28;20119;-74
2023/01/04 01:13:46;;;;;;;13.82;6.65;;;10.60;99.90;;;;;;5091056;28;20044;-73
2023/01/04 01:16:14;;;;;;;12.45;6.57;;;10.60;99.90;;;;;;5078522;28;20374;-73
2023/01/04 01:18:42;;;;;;;12.35;6.97;;;10.60;99.90;;;;;;5079838;28;20039;-73
2023/01/04 01:21:12;;;;;;;13.30;7.35;;;10.60;99.90;;;;;;5078925;28;20475;-73
2023/01/04 01:23:39;;;;;;;12.70;6.93;;;10.60;99.90;;;;;;5070218;28;20036;-73
2023/01/04 01:26:07;;;;;;;15.90;6.93;;;10.60;99.90;;;;;;5065088;28;20601;-73
2023/01/04 01:28:34;;;;;;;11.85;6.13;;;10.50;99.90;;;;;;5077560;28;20043;-73
2023/01/04 01:31:13;;;;;;;13.02;7.10;;;10.50;99.90;;;;;;5078653;28;20380;-73
2023/01/04 01:33:40;;;;;;;15.32;7.88;;;10.40;99.90;;;;;;5075193;28;20403;-73
2023/01/04 01:36:07;;;;;;;13.05;7.25;;;10.40;99.90;;;;;;5079700;28;20119;-72
2023/01/04 01:38:34;;;;;;;13.05;6.80;;;10.40;99.90;;;;;;5077826;28;20052;-74
2023/01/04 01:41:00;;;;;;;;;;;10.40;99.90;;;;;;5073553;28;20058;-73
2023/01/04 01:43:50;;;;;;;15.73;7.10;;;10.40;99.90;;;;;;5075587;28;19920;-73
2023/01/04 01:46:22;;;;;;;16.05;6.50;;;10.50;99.90;;;;;;5073202;28;20090;-73
2023/01/04 01:48:50;;;;;;;13.43;7.00;;;10.50;99.90;;;;;;5060748;28;20029;-73
2023/01/04 01:51:18;;;;;;;13.38;7.05;;;10.50;99.90;;;;;;5067297;28;20106;-73
2023/01/04 01:53:48;;;;;;;14.23;7.25;;;10.50;99.90;;;;;;5072909;28;20127;-75
2023/01/04 01:56:17;;;;;;;16.92;7.72;;;10.50;99.90;;;;;;5068440;27;20073;-73
2023/01/04 01:58:49;;;;;;;14.73;7.00;;;10.50;99.90;;;;;;5054321;28;20093;-72
2023/01/04 02:01:15;;;;;;;13.30;6.90;;;10.40;99.90;;;;;;5061166;28;20051;-73
2023/01/04 02:03:42;;;;;;;13.75;6.22;;;10.30;99.90;;;;;;5058173;28;20041;-72
2023/01/04 02:06:16;;;;;;;13.20;6.55;;;10.20;99.90;;;;;;5056945;28;20544;-73
2023/01/04 02:08:42;;;;;;;14.60;6.35;;;10.20;99.90;;;;;;5064505;28;20059;-73
2023/01/04 02:11:09;;;;;;;14.48;6.57;;;10.20;99.90;;;;;;5062333;28;20068;-73
2023/01/04 02:16:37;;;;;;;13.48;6.25;;;10.20;99.90;;;;;;5054241;28;20648;-72
2023/01/04 02:19:18;;;;;;;14.88;7.05;;;10.30;99.90;;;;;;5054286;28;20059;-73
2023/01/04 02:22:02;;;;;;;15.10;6.28;;;10.40;99.90;;;;;;5076752;28;20070;-73
2023/01/04 02:25:08;;;;;;;13.18;6.28;;;10.40;99.90;;;;;;5078460;28;20033;-73
2023/01/04 02:27:57;;;;;;;13.70;6.72;;;10.40;99.90;;;;;;5076463;28;20062;-73
2023/01/04 02:30:43;;;;;;;15.45;7.07;;;10.30;99.90;;;;;;5076321;28;20037;-73
2023/01/04 02:33:22;;;;;;;13.05;6.88;;;10.40;99.90;;;;;;5086705;28;20033;-73
2023/01/04 02:36:09;;;;;;;15.00;7.22;;;10.40;99.90;;;;;;5078674;28;20100;-72
2023/01/04 02:39:17;;;;;;;12.05;6.90;;;10.30;99.90;;;;;;5076309;28;20123;-73
2023/01/04 02:42:06;;;;;;;12.63;6.93;;;10.20;99.90;;;;;;5055250;28;20039;-74
2023/01/04 02:44:52;;;;;;;14.45;7.20;;;10.20;99.90;;;;;;5079278;28;20113;-73
2023/01/04 02:50:38;;;;;;;12.60;6.93;;;10.10;99.90;;;;;;5078383;28;20499;-73
2023/01/04 02:53:13;;;;;;;14.18;6.57;;;10.00;99.90;;;;;;5079055;28;20376;-73
2023/01/04 02:55:54;;;;;;;13.88;6.53;;;10.00;99.90;;;;;;5095473;28;20057;-73
2023/01/04 02:58:49;;;;;;;13.48;6.78;;;9.90;99.90;;;;;;5078959;28;20032;-72
2023/01/04 03:07:36;;;;;;;13.13;6.88;;;9.90;99.90;;;;;;5080565;28;20119;-73
2023/01/04 03:10:38;;;;;;;13.40;8.15;;;10.00;99.90;;;;;;5090063;28;20096;-73
2023/01/04 03:13:18;;;;;;;13.68;6.70;;;10.10;99.90;;;;;;5071716;28;20551;-73
2023/01/04 03:15:51;;;;;;;16.38;7.43;;;10.20;99.90;;;;;;5080315;28;20116;-73
2023/01/04 03:18:23;;;;;;;15.18;7.50;;;10.20;99.90;;;;;;5092349;27;20067;-73
2023/01/04 03:20:51;;;;;;;15.20;7.85;;;10.20;99.90;;;;;;5081060;28;20039;-73
2023/01/04 03:49:56;;;;;;;16.38;7.82;;;10.10;99.90;;;;;;5092303;27;20047;-73
2023/01/04 03:52:25;;;;;;;15.63;7.65;;;10.10;99.90;;;;;;5093579;28;20068;-73
2023/01/04 03:54:54;;;;;;;13.60;7.20;;;10.30;99.90;;;;;;5105084;27;20100;-73
2023/01/04 03:57:21;;;;;;;14.90;7.78;;;10.30;99.90;;;;;;5075320;28;21407;-73
2023/01/04 03:59:49;;;;;;;;;;;10.30;99.90;;;;;;5077526;28;20037;-73
2023/01/04 04:02:18;;;;;;;13.80;7.10;;;10.10;99.90;;;;;;5075072;28;19919;-72
2023/01/04 04:10:15;;;;;;;14.82;7.43;;;10.00;99.90;;;;;;5074847;28;20051;-73
2023/01/04 04:12:41;;;;;;;14.88;7.72;;;10.00;99.90;;;;;;5079194;28;20040;-72
2023/01/04 04:15:08;;;;;;;17.33;7.25;;;10.00;99.90;;;;;;5070597;28;20044;-73
2023/01/04 04:17:34;;;;;;;14.73;7.25;;;10.10;99.90;;;;;;5089467;28;20036;-73
2023/01/04 04:20:00;;;;;;;15.00;7.07;;;10.10;99.90;;;;;;5088278;28;20045;-72
2023/01/04 04:22:25;;;;;;;15.93;7.13;;;10.20;99.90;;;;;;5061962;28;20043;-71
2023/01/04 04:24:51;;;;;;;13.35;7.15;;;10.20;99.90;;;;;;5057548;28;20468;-72
2023/01/04 04:27:17;;;;;;;17.00;7.32;;;10.30;99.90;;;;;;5058107;28;20051;-72
2023/01/04 04:29:43;;;;;;;13.43;6.95;;;10.40;99.90;;;;;;5056247;28;20072;-73
2023/01/04 04:32:09;;;;;;;16.70;7.93;;;10.40;99.90;;;;;;5053376;28;20037;-73
2023/01/04 04:34:36;;;;;;;13.27;6.40;;;10.50;99.90;;;;;;5054122;28;20036;-72
2023/01/04 04:37:02;;;;;;;13.75;7.13;;;10.60;99.90;;;;;;5067408;28;20037;-73
2023/01/04 04:39:27;;;;;;;14.60;7.35;;;10.50;99.90;;;;;;5077741;28;20101;-72
2023/01/04 04:41:53;;;;;;;13.13;7.05;;;10.40;99.90;;;;;;5084402;28;20544;-73
2023/01/04 04:44:20;;;;;;;14.60;7.28;;;10.30;99.90;;;;;;5078886;28;20044;-72
2023/01/04 04:46:47;;;;;;;17.52;8.23;;;10.20;99.90;;;;;;5075858;28;20040;-73
2023/01/04 04:49:14;;;;;;;14.48;7.45;;;10.10;99.90;;;;;;5067169;28;20025;-73
2023/01/04 04:51:41;;;;;;;13.48;7.07;;;10.10;99.90;;;;;;5078397;28;20325;-73
2023/01/04 04:54:09;;;;;;;16.60;7.95;;;10.00;99.90;;;;;;5080394;28;20476;-73
2023/01/04 04:56:36;;;;;;;14.20;6.75;;;10.00;99.90;;;;;;5062271;28;20409;-73
2023/01/04 04:59:03;;;;;;;13.48;7.05;;;10.10;99.90;;;;;;5076085;28;20055;-72
2023/01/04 05:01:29;;;;;;;;;;;10.20;99.90;;;;;;5068338;28;20090;-73
2023/01/04 05:03:56;;;;;;;12.10;6.43;;;10.30;99.90;;;;;;5085970;28;19920;-73
2023/01/04 05:06:23;;;;;;;14.38;7.40;;;10.50;99.90;;;;;;5067217;28;21115;-73
2023/01/04 05:08:49;;;;;;;14.45;6.68;;;10.80;99.90;;;;;;5089278;28;20037;-74
2023/01/04 05:11:15;;;;;;;12.88;6.97;;;10.80;99.90;;;;;;5074488;28;20032;-72
2023/01/04 05:13:41;;;;;;;13.35;6.45;;;10.70;99.90;;;;;;5058845;28;20037;-73
2023/01/04 05:16:09;;;;;;;16.38;6.57;;;10.70;99.90;;;;;;5061817;28;20044;-72
2023/01/04 05:18:35;;;;;;;13.85;7.28;;;10.60;99.90;;;;;;5062087;28;20068;-74
2023/01/04 05:21:01;;;;;;;11.00;4.90;;;10.60;99.90;;;;;;5084574;28;20153;-73
2023/01/04 05:23:27;;;;;;;13.40;6.60;;;10.90;99.90;;;;;;5086495;28;20028;-72
2023/01/04 05:25:58;;;;;;;10.32;5.45;;;11.00;99.90;;;;;;5075096;28;20123;-73
2023/01/04 05:28:24;;;;;;;10.48;5.57;;;11.20;99.90;;;;;;5060230;28;20032;-73
2023/01/04 05:30:54;;;;;;;11.35;5.50;;;11.20;99.90;;;;;;5057334;28;20036;-73
2023/01/04 05:33:28;;;;;;;12.02;5.88;;;11.30;99.90;;;;;;5071185;28;20048;-73
2023/01/04 05:35:57;;;;;;;13.02;5.90;;;11.10;99.90;;;;;;5078835;28;20779;-72
2023/01/04 05:38:23;;;;;;;11.23;5.25;;;11.10;99.90;;;;;;5074610;28;20116;-73
2023/01/04 05:40:50;;;;;;;11.25;5.97;;;11.10;99.90;;;;;;5079401;28;20462;-73
2023/01/04 05:43:18;;;;;;;11.48;5.38;;;11.10;99.90;;;;;;5065195;28;20033;-73
2023/01/04 05:45:47;;;;;;;10.77;5.05;;;11.00;99.90;;;;;;5055561;28;20029;-73
2023/01/04 05:48:13;;;;;;;9.27;4.75;;;11.00;99.90;;;;;;5086227;28;20047;-73
2023/01/04 05:50:39;;;;;;;13.25;4.90;;;10.90;99.90;;;;;;5055302;28;20484;-73
2023/01/04 05:53:05;;;;;;;9.95;5.35;;;10.90;99.90;;;;;;5040276;28;20037;-73
2023/01/04 05:55:33;;;;;;;12.75;5.57;;;10.90;99.90;;;;;;5042073;28;20032;-73
2023/01/04 05:57:59;;;;;;;11.30;5.38;;;10.90;99.90;;;;;;5084750;28;20044;-73
2023/01/04 06:00:27;;;;;;;10.93;5.05;;;10.90;99.90;;;;;;5072138;28;20042;-73
2023/01/04 06:02:55;;;;;;;11.32;5.15;;;10.90;99.90;;;;;;5069119;28;20094;-73
2023/01/04 06:05:25;;;;;;;11.75;5.00;;;10.80;99.90;;;;;;5075871;28;20866;-73
2023/01/04 06:07:52;;;;;;;12.27;5.75;;;10.90;99.90;;;;;;5082956;28;20037;-72
2023/01/04 06:10:17;;;;;;;10.65;6.18;;;10.90;99.90;;;;;;5078885;28;20415;-72
2023/01/04 06:12:45;;;;;;;9.48;5.25;;;10.80;99.90;;;;;;5080551;28;20130;-74
2023/01/04 06:15:11;;;;;;;9.48;5.22;;;10.80;99.90;;;;;;5071119;28;20040;-73
2023/01/04 06:17:38;;;;;;;11.25;5.28;;;10.70;99.90;;;;;;5062558;28;20043;-74
2023/01/04 06:20:04;;;;;;;;;;;10.80;99.90;;;;;;5067933;28;20107;-73
2023/01/04 06:22:31;;;;;;;8.57;4.45;;;10.90;99.90;;;;;;5065802;28;19916;-74
2023/01/04 06:24:57;;;;;;;;;;;10.80;99.90;;;;;;5066028;28;20123;-72
2023/01/04 06:27:23;;;;;;;12.95;5.30;;;10.80;99.90;;;;;;5061828;28;19920;-74
2023/01/04 06:29:49;;;;;;;11.85;5.00;;;10.70;99.90;;;;;;5083958;28;20467;-73
2023/01/04 06:32:15;;;;;;;10.68;5.28;;;10.50;99.90;;;;;;5083573;28;20035;-74
2023/01/04 06:34:40;;;;;;;10.52;4.85;;;10.50;99.90;;;;;;5077286;28;20041;-73
2023/01/04 06:37:06;;;;;;;10.20;4.70;;;10.60;99.90;;;;;;5075463;28;20055;-74
2023/01/04 06:39:32;;;;;;;9.35;4.80;;;10.50;99.90;;;;;;5081478;28;20029;-74
2023/01/04 06:41:58;;;;;;;10.70;5.13;;;10.60;99.90;;;;;;5079700;28;20092;-73
2023/01/04 06:44:23;;;;;;;11.30;5.07;;;10.70;99.90;;;;;;5080760;28;20468;-75
2023/01/04 06:46:49;;;;;;;10.35;5.28;;;10.70;99.90;;;;;;5068993;28;20040;-72
2023/01/04 06:49:15;;;;;;;9.07;5.15;;;10.80;99.90;;;;;;5065750;28;20047;-73
2023/01/04 06:51:41;;;;;;;14.13;5.43;;;10.80;99.90;;;;;;5059759;28;20040;-72
2023/01/04 06:54:10;;;;;;;12.02;5.30;;;10.90;99.90;;;;;;5061950;28;20041;-73
2023/01/04 06:56:39;;;;;;;10.77;4.68;;;10.80;99.90;;;;;;5061143;28;20037;-72
2023/01/04 06:59:05;;;;;;;10.77;4.78;;;10.80;99.90;;;;;;5059948;28;20108;-74
2023/01/04 07:01:30;;;;;;;10.10;4.93;;;10.70;99.90;;;;;;5064121;28;20037;-73
2023/01/04 07:03:56;;;;;;;12.48;5.55;;;10.70;99.90;;;;;;5059608;28;20487;-73
2023/01/04 07:06:22;;;;;;;11.50;5.07;;;10.70;99.90;;;;;;5065263;28;20593;-74
2023/01/04 07:08:48;;;;;;;10.15;4.90;;;10.80;99.90;;;;;;5060598;28;20051;-73
2023/01/04 07:11:14;;;;;;;13.60;5.05;;;10.70;99.90;;;;;;5061066;28;20128;-73
2023/01/04 07:13:39;;;;;;;13.20;5.35;;;10.70;99.90;;;;;;5049952;28;20036;-75
2023/01/04 07:16:06;;;;;;;12.55;6.82;;;10.60;99.90;;;;;;5061151;28;20466;-77
2023/01/04 07:18:31;;;;;;;10.95;5.55;;;10.50;99.90;;;;;;5060142;28;20396;-73
2023/01/04 07:20:58;;;;;;;11.48;5.35;;;10.40;99.90;;;;;;5057792;28;20048;-73
2023/01/04 07:23:26;;;;;;;12.75;5.82;;;10.30;99.90;;;;;;5060072;28;20039;-73
2023/01/04 07:25:52;;;;;;;16.33;6.32;;;10.30;99.90;;;;;;5056476;28;20082;-72
2023/01/04 07:29:13;;;;;;;12.80;6.00;;;10.30;99.90;;;;;;5060338;28;20518;-73
2023/01/04 07:31:05;;;;;;;13.02;5.82;;;10.40;99.90;;;;;;5059263;28;20045;-73
2023/01/04 07:33:31;;;;;;;14.10;6.15;;;10.40;99.90;;;;;;5055274;28;20075;-75
2023/01/04 07:36:04;;;;;;;12.30;4.60;;;10.40;99.90;;;;;;5068456;28;20078;-73
2023/01/04 07:38:31;;;;;;;11.43;5.25;;;10.40;99.90;;;;;;5081378;28;20037;-73
2023/01/04 07:40:57;;;;;;;9.98;4.85;;;10.60;99.90;;;;;;5092522;28;20029;-74
2023/01/04 07:43:23;;;;;;;10.55;5.28;;;10.70;99.90;;;;;;5077136;28;20047;-73
2023/01/04 07:45:48;;;;;;;11.48;5.97;;;10.80;99.90;;;;;;5064627;28;20039;-73
2023/01/04 07:48:14;;;;;;;10.00;5.15;;;10.70;99.90;;;;;;5075447;28;20043;-73
2023/01/04 07:50:40;;;;;;;11.50;5.55;;;10.80;99.90;;;;;;5081874;28;20099;-73
2023/01/04 07:53:06;;;;;;;9.93;5.18;;;10.80;99.90;;;;;;5071711;28;20036;-74
2023/01/04 07:55:32;;;;;;;9.48;4.72;;;10.80;99.90;;;;;;5075642;28;20032;-74
2023/01/04 07:57:57;;;;;;;9.38;4.68;;;10.90;99.90;;;;;;5080254;28;20030;-74
2023/01/04 08:00:23;;;;;;;12.07;4.15;;;11.00;99.90;;;;;;5077436;28;20428;-73
2023/01/04 08:02:49;;;;;;;7.85;3.35;;;11.20;99.90;;;;;;5109791;27;20077;-73
2023/01/04 08:05:15;;;;;;;12.07;3.97;;;11.30;99.90;;;;;;5055253;28;20121;-73
2023/01/04 08:07:40;;;;;;;11.55;4.28;;;11.40;99.90;;;;;;5081793;28;20033;-74
2023/01/04 08:10:08;;;;;;;11.05;5.05;;;11.40;99.90;;;;;;5089630;27;20083;-73
2023/01/04 08:12:34;;;;;;;9.43;4.85;;;11.40;99.90;;;;;;5094644;27;20098;-74
2023/01/04 08:15:00;;;;;;;8.25;3.92;;;11.40;99.90;;;;;;5060486;28;20040;-75
2023/01/04 08:17:26;;;;;;;12.60;4.45;;;11.50;99.90;;;;;;5062078;28;20554;-74
2023/01/04 08:19:51;;;;;;;8.25;4.03;;;11.50;99.90;;;;;;5066587;28;20040;-73
2023/01/04 08:22:17;;;;;;;10.38;4.03;;;11.70;99.90;;;;;;5090835;27;20534;-74
2023/01/04 08:24:43;;;;;;;7.22;3.40;;;12.90;99.90;;;;;;5095096;28;20055;-74
2023/01/04 08:27:09;;;;;;;12.32;4.80;;;12.60;99.90;;;;;;5080881;28;20957;-76
2023/01/04 08:29:36;;;;;;;11.18;4.30;;;12.50;99.90;;;;;;5070639;28;20067;-73
2023/01/04 08:32:02;;;;;;;9.68;4.30;;;13.90;99.90;;;;;;5063758;28;20479;-74
2023/01/04 08:34:29;;;;;;;8.75;3.80;;;15.20;99.90;;;;;;5079806;28;20044;-75
2023/01/04 08:36:55;;;;;;;7.57;3.83;;;15.90;99.90;;;;;;5074366;28;20077;-73
2023/01/04 08:39:21;;;;;;;12.38;4.32;;;16.60;99.90;;;;;;5080893;28;20062;-75
2023/01/04 08:41:49;;;;;;;6.65;3.92;;;16.90;99.60;;;;;;5068550;28;20084;-74
2023/01/04 08:44:24;;;;;;;8.00;3.72;;;17.30;98.90;;;;;;5077420;28;20042;-74
2023/01/04 08:46:51;;;;;;;9.07;4.20;;;17.50;98.40;;;;;;5092713;28;20043;-74
2023/01/04 08:49:17;;;;;;;6.72;3.55;;;17.70;98.40;;;;;;5071144;28;20025;-73
2023/01/04 08:51:44;;;;;;;11.73;4.28;;;17.90;98.10;;;;;;5088673;28;20072;-74
2023/01/04 08:54:12;;;;;;;8.05;4.03;;;18.00;97.40;;;;;;5078338;28;20150;-74
2023/01/04 08:56:39;;;;;;;9.98;3.63;;;17.20;97.70;;;;;;5072694;28;20048;-73
2023/01/04 08:59:05;;;;;;;7.63;3.63;;;16.30;98.80;;;;;;5075826;28;20108;-74
2023/01/04 09:01:33;;;;;;;7.20;3.50;;;15.60;99.40;;;;;;5068891;28;20444;-73
2023/01/04 09:03:59;;;;;;;8.55;3.17;;;15.20;99.90;;;;;;5078732;28;20780;-75
2023/01/04 09:06:25;;;;;;;8.00;3.72;;;15.00;99.90;;;;;;5067709;28;20033;-73
2023/01/04 09:08:52;;;;;;;9.55;3.60;;;14.80;99.90;;;;;;5079843;28;20056;-73
2023/01/04 09:11:20;;;;;;;8.18;3.72;;;14.70;99.90;;;;;;5090399;28;20103;-74
2023/01/04 09:13:47;;;;;;;7.20;3.33;;;14.70;99.90;;;;;;5064236;28;20093;-74
2023/01/04 09:16:18;;;;;;;7.63;3.45;;;14.90;99.90;;;;;;5076738;28;20485;-74
2023/01/04 09:18:45;;;;;;;7.85;3.47;;;14.90;99.90;;;;;;5058824;28;20048;-74
2023/01/04 09:21:14;;;;;;;;;;;15.00;99.90;;;;;;5057802;28;20927;-75
2023/01/04 09:23:41;;;;;;;9.10;3.30;;;15.20;99.90;;;;;;5063651;28;19909;-73
2023/01/04 09:26:10;;;;;;;7.68;3.30;;;15.20;99.90;;;;;;5047627;28;20037;-75
2023/01/04 09:28:36;;;;;;;7.78;3.35;;;15.30;99.90;;;;;;5058163;28;20115;-73
2023/01/04 09:31:14;;;;;;;6.43;3.30;;;15.50;99.90;;;;;;5042080;28;20036;-74
2023/01/04 09:33:41;;;;;;;5.95;3.10;;;15.70;99.60;;;;;;5057647;28;20041;-74
2023/01/04 09:36:09;;;;;;;7.50;3.50;;;16.00;99.20;;;;;;5060029;28;20048;-74
2023/01/04 09:38:35;;;;;;;10.55;3.53;;;16.50;99.10;;;;;;5058909;28;20048;-73
2023/01/04 09:41:14;;;;;;;9.82;3.20;;;16.80;98.80;;;;;;5048939;28;20041;-74
2023/01/04 09:43:51;;;;;;;7.50;3.20;;;17.00;98.30;;;;;;5079299;28;20035;-73
2023/01/04 09:46:27;;;;;;;6.88;3.22;;;17.20;97.80;;;;;;5092793;27;20387;-74
2023/01/04 09:49:19;;;;;;;6.95;3.30;;;17.20;97.70;;;;;;5074751;28;20051;-73
2023/01/04 09:51:54;;;;;;;8.30;3.40;;;17.40;97.60;;;;;;5092746;27;20069;-73
2023/01/04 09:54:22;;;;;;;7.90;3.47;;;17.60;97.40;;;;;;5074940;28;20040;-74
2023/01/04 09:56:54;;;;;;;6.95;3.13;;;17.50;97.10;;;;;;5079644;28;20036;-75
2023/01/04 09:59:30;;;;;;;6.32;2.97;;;17.70;97.20;;;;;;5070170;28;20048;-75
2023/01/04 10:02:17;;;;;;;8.23;3.20;;;17.70;96.80;;;;;;5080076;28;20036;-74
2023/01/04 10:04:48;;;;;;;6.40;3.30;;;17.50;96.80;;;;;;5081206;28;20091;-75
2023/01/04 10:07:23;;;;;;;5.88;3.10;;;17.80;96.90;;;;;;5080187;28;20064;-73
2023/01/04 10:09:50;;;;;;;5.22;2.88;;;17.90;96.60;;;;;;5082009;28;20135;-74
2023/01/04 10:12:27;;;;;;;6.97;2.97;;;18.10;96.60;;;;;;5081871;28;20102;-73
2023/01/04 10:14:56;;;;;;;8.45;3.40;;;18.40;96.50;;;;;;5079908;28;20052;-75
2023/01/04 10:17:42;;;;;;;6.93;3.00;;;18.60;96.20;;;;;;5079205;28;20444;-73
2023/01/04 10:20:11;;;;;;;6.40;3.00;;;18.70;96.00;;;;;;5070346;28;20148;-74
2023/01/04 10:22:49;;;;;;;7.43;3.50;;;18.80;95.90;;;;;;5095636;28;20033;-74
2023/01/04 10:25:19;;;;;;;5.43;3.40;;;18.70;95.40;;;;;;5087109;28;20037;-74
2023/01/04 10:27:48;;;;;;;5.45;3.17;;;18.90;95.60;;;;;;5059965;28;20037;-74
2023/01/04 10:30:17;;;;;;;10.57;4.82;;;19.20;95.20;;;;;;5090012;27;20082;-74
2023/01/04 10:32:45;;;;;;;9.73;3.95;;;19.50;95.10;;;;;;5073965;28;20029;-74
2023/01/04 10:35:23;;;;;;;9.05;3.90;;;19.30;95.10;;;;;;5083198;28;20043;-74
2023/01/04 10:38:02;;;;;;;8.25;3.50;;;19.50;94.90;;;;;;5076941;28;20032;-74
2023/01/04 10:40:35;;;;;;;6.95;3.05;;;19.50;94.60;;;;;;5091063;28;20032;-75
2023/01/04 10:43:13;;;;;;;7.22;2.85;;;19.80;94.40;;;;;;5081421;28;20525;-73
2023/01/04 10:45:43;;;;;;;6.22;3.35;;;20.30;94.40;;;;;;5078319;28;20036;-73
2023/01/04 10:48:21;;;;;;;8.23;3.55;;;20.50;94.10;;;;;;5074245;28;20032;-74
2023/01/04 10:51:01;;;;;;;6.80;3.10;;;20.80;93.80;;;;;;5073317;28;20188;-74
2023/01/04 10:53:45;;;;;;;6.22;3.10;;;20.80;93.60;;;;;;5077329;28;20036;-76
2023/01/04 10:56:20;;;;;;;5.75;3.03;;;20.70;93.50;;;;;;5065494;28;20032;-74
2023/01/04 10:58:55;;;;;;;7.63;3.00;;;20.60;93.40;;;;;;5073534;28;20495;-73
2023/01/04 11:01:38;;;;;;;6.72;3.47;;;20.80;93.50;;;;;;5060532;28;20044;-74
2023/01/04 11:04:15;;;;;;;5.85;2.80;;;20.80;93.20;;;;;;5074990;28;20123;-74
2023/01/04 11:07:05;;;;;;;6.15;2.92;;;21.10;93.20;;;;;;5095479;27;20042;-73
2023/01/04 11:09:43;;;;;;;7.25;4.13;;;21.70;92.70;;;;;;5080780;28;20442;-74
2023/01/04 11:12:12;;;;;;;6.03;3.25;;;22.00;92.40;;;;;;5073827;28;20040;-73
2023/01/04 11:14:38;;;;;;;9.57;3.35;;;22.20;92.10;;;;;;5077779;28;20035;-74
2023/01/04 11:17:08;;;;;;;9.35;3.20;;;22.40;91.90;;;;;;5093653;28;20048;-75
2023/01/04 11:19:34;;;;;;;5.65;2.25;;;22.80;91.40;;;;;;5078037;28;20373;-74
2023/01/04 11:22:23;;;;;;;5.88;3.00;;;22.80;91.40;;;;;;5078117;28;20114;-74
2023/01/04 11:24:53;;;;;;;6.28;3.10;;;23.00;91.50;;;;;;5087180;28;20040;-73
2023/01/04 11:27:24;;;;;;;5.90;2.63;;;22.80;91.30;;;;;;5077819;28;20036;-74
2023/01/04 11:30:09;;;;;;;5.35;2.30;;;22.80;91.10;;;;;;5079814;28;20027;-75
2023/01/04 11:32:51;;;;;;;5.13;2.40;;;23.20;90.70;;;;;;5079494;28;20037;-74
2023/01/04 11:35:37;;;;;;;6.03;2.75;;;23.60;90.50;;;;;;5082910;28;20055;-74
2023/01/04 11:38:28;;;;;;;5.78;2.55;;;23.60;90.40;;;;;;5072606;28;20031;-74
2023/01/04 11:40:55;;;;;;;6.57;2.75;;;24.10;90.00;;;;;;5077578;28;20029;-74
2023/01/04 11:43:23;;;;;;;5.68;2.97;;;24.60;88.50;;;;;;5073096;28;20039;-73
2023/01/04 11:46:17;;;;;;;5.60;2.45;;;25.00;87.90;;;;;;5075223;28;20040;-74
2023/01/04 11:48:45;;;;;;;12.40;3.03;;;25.30;87.10;;;;;;5074228;28;20559;-74
2023/01/04 11:51:24;;;;;;;9.77;3.00;;;25.40;87.00;;;;;;5083997;28;20040;-74
2023/01/04 11:54:18;;;;;;;6.15;2.67;;;25.50;87.00;;;;;;5077343;28;20468;-74
2023/01/04 11:57:07;;;;;;;4.85;2.30;;;25.70;86.40;;;;;;5075865;28;20108;-73
2023/01/04 11:59:33;;;;;;;9.43;3.58;;;25.50;86.20;;;;;;5079522;28;20028;-73
2023/01/04 12:02:17;;;;;;;;;;;24.00;86.60;;;;;;5073514;28;20084;-74
2023/01/04 12:04:43;;;;;;;8.18;3.90;;;24.10;87.70;;;;;;5074632;28;19946;-75
2023/01/04 12:07:15;;;;;;;7.95;4.25;;;24.60;87.20;;;;;;5081465;28;20031;-73
2023/01/04 12:09:41;;;;;;;6.88;3.80;;;24.00;86.80;;;;;;5090213;28;20028;-75
2023/01/04 12:12:11;;;;;;;6.38;3.28;;;23.70;87.80;;;;;;5035974;28;20055;-74
2023/01/04 12:14:44;;;;;;;13.23;5.65;;;24.40;86.70;;;;;;5042628;28;20028;-74
2023/01/04 12:17:23;;;;;;;8.68;5.10;;;23.50;85.90;;;;;;5058235;28;20047;-74
2023/01/04 12:19:52;;;;;;;8.65;4.93;;;24.70;86.70;;;;;;5060771;28;20075;-73
2023/01/04 12:22:40;;;;;;;7.30;4.43;;;25.50;85.80;;;;;;5060768;28;20041;-74
2023/01/04 12:25:44;;;;;;;7.82;4.25;;;25.60;84.60;;;;;;5058968;28;20037;-75
2023/01/04 12:28:39;;;;;;;8.65;4.68;;;25.80;84.90;;;;;;5062482;28;21498;-73
2023/01/04 12:31:19;;;;;;;10.23;5.40;;;25.60;85.50;;;;;;5075747;28;20084;-74
2023/01/04 12:33:50;;;;;;;12.27;5.93;;;24.60;86.20;;;;;;5089748;27;20041;-74
2023/01/04 12:36:21;;;;;;;10.43;6.00;;;25.20;86.00;;;;;;5080421;28;20051;-75
2023/01/04 12:39:30;;;;;;;9.75;6.35;;;24.20;86.10;;;;;;5079687;28;20080;-74
2023/01/04 12:41:59;;;;;;;10.10;5.60;;;24.60;86.70;;;;;;5048836;28;20111;-73
2023/01/04 12:44:46;;;;;;;8.68;5.85;;;24.50;86.70;;;;;;5076425;28;20501;-74
2023/01/04 12:50:10;;;;;;;12.15;6.93;;;24.70;85.90;;;;;;5078934;28;20061;-74
2023/01/04 12:52:53;;;;;;;14.40;7.15;;;25.00;86.00;;;;;;5075544;28;20108;-75
2023/01/04 12:55:31;;;;;;;15.23;10.60;;;25.50;85.80;;;;;;5078163;28;20036;-74
2023/01/04 12:58:01;;;;;;;19.00;11.38;;;24.50;87.20;;;;;;5079158;28;20036;-75
2023/01/04 13:00:58;;;;;;;17.65;10.38;;;24.60;87.00;;;;;;5076641;28;20036;-75
2023/01/04 13:03:27;;;;;;;15.75;11.00;;;25.10;86.50;;;;;;5077386;28;20098;-75
2023/01/04 13:05:55;;;;;;;15.30;9.90;;;25.00;86.70;;;;;;5056810;28;20033;-74
2023/01/04 13:08:28;;;;;;;15.88;10.18;;;25.10;86.60;;;;;;5055623;28;20037;-74
2023/01/04 13:10:55;;;;;;;15.43;10.40;;;25.10;86.30;;;;;;5049178;28;20037;-74
2023/01/04 13:13:44;;;;;;;18.05;10.75;;;25.60;85.80;;;;;;5055285;28;20032;-75
2023/01/04 13:16:25;;;;;;;17.38;10.95;;;25.50;86.20;;;;;;5053266;28;20128;-73
2023/01/04 13:18:54;;;;;;;14.77;11.00;;;26.50;85.50;;;;;;5055265;28;20028;-74
2023/01/04 13:21:41;;;;;;;20.20;11.25;;;26.70;84.90;;;;;;5056601;28;20044;-74
2023/01/04 13:24:32;;;;;;;16.67;10.73;;;26.90;84.70;;;;;;5040061;28;20044;-74
2023/01/04 13:27:13;;;;;;;19.27;11.80;;;27.00;84.80;;;;;;5057636;28;20039;-75
2023/01/04 13:29:40;;;;;;;21.55;14.05;;;27.50;84.10;;;;;;5078259;28;20036;-74
2023/01/04 13:32:25;;;;;;;20.05;12.68;;;27.80;83.70;;;;;;5075574;28;20071;-74
2023/01/04 13:35:01;;;;;;;20.92;11.75;;;28.10;83.10;;;;;;5075495;28;20046;-74
2023/01/04 13:37:31;;;;;;;19.60;13.00;;;28.60;82.50;;;;;;5092327;28;20037;-75
2023/01/04 13:40:15;;;;;;;19.45;12.32;;;28.60;81.80;;;;;;5076136;28;20541;-74
2023/01/04 13:42:45;;;;;;;15.02;10.35;;;27.70;82.80;;;;;;5078581;28;20036;-74
2023/01/04 13:45:32;;;;;;;14.45;9.73;;;26.80;81.30;;;;;;5082000;28;20028;-73
2023/01/04 13:48:02;;;;;;;17.33;11.65;;;26.20;82.80;;;;;;5076013;28;20945;-73